sensor_id;sensor_type;location;lat;lon;timestamp;P1;durP1;ratioP1;P2;durP2;ratioP2
34805;SDS011;65084;42.196;25.326;2024-02-14T00:02:25;2.85;;;2.30;;
34805;SDS011;65084;42.196;25.326;2024-02-14T00:04:53;3.10;;;2.08;;
34805;SDS011;65084;42.196;25.326;2024-02-14T00:07:20;2.58;;;2.38;;
34805;SDS011;65084;42.196;25.326;2024-02-14T00:09:48;2.40;;;2.20;;
34805;SDS011;65084;42.196;25.326;2024-02-14T00:12:17;1.92;;;1.83;;
34805;SDS011;65084;42.196;25.326;2024-02-14T00:14:44;1.88;;;1.77;;
34805;SDS011;65084;42.196;25.326;2024-02-14T00:17:11;2.17;;;1.98;;
34805;SDS011;65084;42.196;25.326;2024-02-14T00:19:38;2.42;;;1.90;;
34805;SDS011;65084;42.196;25.326;2024-02-14T00:22:06;2.03;;;1.92;;
34805;SDS011;65084;42.196;25.326;2024-02-14T00:24:33;1.95;;;1.85;;
34805;SDS011;65084;42.196;25.326;2024-02-14T00:27:01;2.05;;;1.95;;
34805;SDS011;65084;42.196;25.326;2024-02-14T00:29:30;2.35;;;2.15;;
34805;SDS011;65084;42.196;25.326;2024-02-14T00:31:59;2.17;;;1.98;;
34805;SDS011;65084;42.196;25.326;2024-02-14T00:34:26;2.65;;;2.45;;
34805;SDS011;65084;42.196;25.326;2024-02-14T00:36:53;1.98;;;1.88;;
34805;SDS011;65084;42.196;25.326;2024-02-14T00:39:21;2.20;;;2.00;;
34805;SDS011;65084;42.196;25.326;2024-02-14T00:41:48;1.90;;;1.80;;
34805;SDS011;65084;42.196;25.326;2024-02-14T00:44:17;1.73;;;1.63;;
34805;SDS011;65084;42.196;25.326;2024-02-14T00:46:46;1.60;;;1.50;;
34805;SDS011;65084;42.196;25.326;2024-02-14T00:49:14;1.58;;;1.48;;
34805;SDS011;65084;42.196;25.326;2024-02-14T00:51:41;1.80;;;1.70;;
34805;SDS011;65084;42.196;25.326;2024-02-14T00:54:08;1.70;;;1.60;;
34805;SDS011;65084;42.196;25.326;2024-02-14T00:56:36;1.70;;;1.60;;
34805;SDS011;65084;42.196;25.326;2024-02-14T00:59:03;1.52;;;1.40;;
34805;SDS011;65084;42.196;25.326;2024-02-14T01:01:31;1.67;;;1.58;;
34805;SDS011;65084;42.196;25.326;2024-02-14T01:03:59;1.55;;;1.45;;
34805;SDS011;65084;42.196;25.326;2024-02-14T01:06:28;2.00;;;1.70;;
34805;SDS011;65084;42.196;25.326;2024-02-14T01:08:56;1.98;;;1.50;;
34805;SDS011;65084;42.196;25.326;2024-02-14T01:11:24;2.05;;;1.50;;
34805;SDS011;65084;42.196;25.326;2024-02-14T01:13:51;3.42;;;1.73;;
34805;SDS011;65084;42.196;25.326;2024-02-14T01:16:19;2.10;;;1.67;;
34805;SDS011;65084;42.196;25.326;2024-02-14T01:18:46;1.80;;;1.70;;
34805;SDS011;65084;42.196;25.326;2024-02-14T01:21:15;1.73;;;1.63;;
34805;SDS011;65084;42.196;25.326;2024-02-14T01:23:42;1.50;;;1.40;;
34805;SDS011;65084;42.196;25.326;2024-02-14T01:26:09;1.48;;;1.38;;
34805;SDS011;65084;42.196;25.326;2024-02-14T01:28:37;1.67;;;1.58;;
34805;SDS011;65084;42.196;25.326;2024-02-14T01:31:04;1.90;;;1.80;;
34805;SDS011;65084;42.196;25.326;2024-02-14T01:33:31;1.48;;;1.38;;
34805;SDS011;65084;42.196;25.326;2024-02-14T01:35:58;1.60;;;1.50;;
34805;SDS011;65084;42.196;25.326;2024-02-14T01:38:27;1.90;;;1.80;;
34805;SDS011;65084;42.196;25.326;2024-02-14T01:41:00;5.13;;;1.63;;
34805;SDS011;65084;42.196;25.326;2024-02-14T01:43:28;1.70;;;1.60;;
34805;SDS011;65084;42.196;25.326;2024-02-14T01:45:55;1.60;;;1.50;;
34805;SDS011;65084;42.196;25.326;2024-02-14T01:48:23;1.60;;;1.50;;
34805;SDS011;65084;42.196;25.326;2024-02-14T01:50:51;1.90;;;1.80;;
34805;SDS011;65084;42.196;25.326;2024-02-14T01:53:18;1.80;;;1.70;;
34805;SDS011;65084;42.196;25.326;2024-02-14T01:55:47;3.92;;;2.00;;
34805;SDS011;65084;42.196;25.326;2024-02-14T01:58:14;2.53;;;1.85;;
34805;SDS011;65084;42.196;25.326;2024-02-14T02:00:41;2.03;;;1.92;;
34805;SDS011;65084;42.196;25.326;2024-02-14T02:03:09;1.50;;;1.40;;
34805;SDS011;65084;42.196;25.326;2024-02-14T02:05:36;1.77;;;1.67;;
34805;SDS011;65084;42.196;25.326;2024-02-14T02:08:04;1.88;;;1.77;;
34805;SDS011;65084;42.196;25.326;2024-02-14T02:10:31;1.48;;;1.38;;
34805;SDS011;65084;42.196;25.326;2024-02-14T02:13:00;1.75;;;1.65;;
34805;SDS011;65084;42.196;25.326;2024-02-14T02:15:27;1.70;;;1.60;;
34805;SDS011;65084;42.196;25.326;2024-02-14T02:17:56;1.55;;;1.45;;
34805;SDS011;65084;42.196;25.326;2024-02-14T02:20:24;2.10;;;1.75;;
34805;SDS011;65084;42.196;25.326;2024-02-14T02:22:54;2.08;;;1.88;;
34805;SDS011;65084;42.196;25.326;2024-02-14T02:25:21;1.63;;;1.52;;
34805;SDS011;65084;42.196;25.326;2024-02-14T02:27:51;2.50;;;2.30;;
34805;SDS011;65084;42.196;25.326;2024-02-14T02:30:23;2.10;;;2.00;;
34805;SDS011;65084;42.196;25.326;2024-02-14T02:32:50;2.30;;;2.10;;
34805;SDS011;65084;42.196;25.326;2024-02-14T02:35:17;2.28;;;2.08;;
34805;SDS011;65084;42.196;25.326;2024-02-14T02:37:46;1.90;;;1.80;;
34805;SDS011;65084;42.196;25.326;2024-02-14T02:40:17;2.30;;;2.10;;
34805;SDS011;65084;42.196;25.326;2024-02-14T02:42:46;2.35;;;2.00;;
34805;SDS011;65084;42.196;25.326;2024-02-14T02:45:15;3.17;;;2.20;;
34805;SDS011;65084;42.196;25.326;2024-02-14T02:47:42;2.17;;;2.08;;
34805;SDS011;65084;42.196;25.326;2024-02-14T02:50:10;1.88;;;1.77;;
34805;SDS011;65084;42.196;25.326;2024-02-14T02:52:37;2.50;;;2.30;;
34805;SDS011;65084;42.196;25.326;2024-02-14T02:55:07;2.47;;;1.98;;
34805;SDS011;65084;42.196;25.326;2024-02-14T02:57:36;3.13;;;2.40;;
34805;SDS011;65084;42.196;25.326;2024-02-14T03:00:06;2.28;;;2.17;;
34805;SDS011;65084;42.196;25.326;2024-02-14T03:02:34;2.05;;;1.95;;
34805;SDS011;65084;42.196;25.326;2024-02-14T03:05:03;2.45;;;2.25;;
34805;SDS011;65084;42.196;25.326;2024-02-14T03:07:35;2.63;;;2.42;;
34805;SDS011;65084;42.196;25.326;2024-02-14T03:10:03;6.03;;;3.25;;
34805;SDS011;65084;42.196;25.326;2024-02-14T03:12:30;3.30;;;3.10;;
34805;SDS011;65084;42.196;25.326;2024-02-14T03:15:04;4.90;;;3.00;;
34805;SDS011;65084;42.196;25.326;2024-02-14T03:17:35;2.78;;;2.53;;
34805;SDS011;65084;42.196;25.326;2024-02-14T03:20:02;2.70;;;2.50;;
34805;SDS011;65084;42.196;25.326;2024-02-14T03:22:35;2.35;;;2.22;;
34805;SDS011;65084;42.196;25.326;2024-02-14T03:25:03;2.90;;;2.70;;
34805;SDS011;65084;42.196;25.326;2024-02-14T03:27:31;2.25;;;2.10;;
34805;SDS011;65084;42.196;25.326;2024-02-14T03:30:00;2.40;;;2.30;;
34805;SDS011;65084;42.196;25.326;2024-02-14T03:32:29;3.80;;;2.55;;
34805;SDS011;65084;42.196;25.326;2024-02-14T03:34:56;2.60;;;2.38;;
34805;SDS011;65084;42.196;25.326;2024-02-14T03:37:25;2.38;;;2.17;;
34805;SDS011;65084;42.196;25.326;2024-02-14T03:39:53;2.63;;;2.20;;
34805;SDS011;65084;42.196;25.326;2024-02-14T03:42:20;2.35;;;2.20;;
34805;SDS011;65084;42.196;25.326;2024-02-14T03:44:47;4.20;;;2.25;;
34805;SDS011;65084;42.196;25.326;2024-02-14T03:47:15;3.28;;;2.38;;
34805;SDS011;65084;42.196;25.326;2024-02-14T03:49:43;2.40;;;2.30;;
34805;SDS011;65084;42.196;25.326;2024-02-14T03:52:11;2.50;;;2.30;;
34805;SDS011;65084;42.196;25.326;2024-02-14T03:54:38;2.65;;;2.45;;
34805;SDS011;65084;42.196;25.326;2024-02-14T03:57:05;2.95;;;2.70;;
34805;SDS011;65084;42.196;25.326;2024-02-14T03:59:35;3.45;;;2.60;;
34805;SDS011;65084;42.196;25.326;2024-02-14T04:02:04;2.72;;;2.53;;
34805;SDS011;65084;42.196;25.326;2024-02-14T04:04:34;2.83;;;2.63;;
34805;SDS011;65084;42.196;25.326;2024-02-14T04:07:03;2.97;;;2.78;;
34805;SDS011;65084;42.196;25.326;2024-02-14T04:09:32;3.33;;;2.63;;
34805;SDS011;65084;42.196;25.326;2024-02-14T04:11:59;2.83;;;2.63;;
34805;SDS011;65084;42.196;25.326;2024-02-14T04:14:27;3.80;;;2.92;;
34805;SDS011;65084;42.196;25.326;2024-02-14T04:16:54;3.35;;;3.13;;
34805;SDS011;65084;42.196;25.326;2024-02-14T04:19:21;3.88;;;2.97;;
34805;SDS011;65084;42.196;25.326;2024-02-14T04:21:49;3.08;;;2.78;;
34805;SDS011;65084;42.196;25.326;2024-02-14T04:24:17;3.60;;;3.05;;
34805;SDS011;65084;42.196;25.326;2024-02-14T04:26:45;3.95;;;2.60;;
34805;SDS011;65084;42.196;25.326;2024-02-14T04:29:13;3.40;;;3.10;;
34805;SDS011;65084;42.196;25.326;2024-02-14T04:31:40;3.60;;;3.30;;
34805;SDS011;65084;42.196;25.326;2024-02-14T04:34:08;4.20;;;3.03;;
34805;SDS011;65084;42.196;25.326;2024-02-14T04:36:36;3.58;;;3.17;;
34805;SDS011;65084;42.196;25.326;2024-02-14T04:39:03;3.70;;;3.40;;
34805;SDS011;65084;42.196;25.326;2024-02-14T04:41:32;4.25;;;3.17;;
34805;SDS011;65084;42.196;25.326;2024-02-14T04:44:02;3.63;;;3.33;;
34805;SDS011;65084;42.196;25.326;2024-02-14T04:46:31;4.35;;;3.95;;
34805;SDS011;65084;42.196;25.326;2024-02-14T04:49:00;4.35;;;3.95;;
34805;SDS011;65084;42.196;25.326;2024-02-14T04:51:28;4.82;;;4.32;;
34805;SDS011;65084;42.196;25.326;2024-02-14T04:53:56;5.13;;;4.60;;
34805;SDS011;65084;42.196;25.326;2024-02-14T04:56:23;7.50;;;4.60;;
34805;SDS011;65084;42.196;25.326;2024-02-14T04:58:53;4.70;;;4.30;;
34805;SDS011;65084;42.196;25.326;2024-02-14T05:01:21;6.97;;;5.70;;
34805;SDS011;65084;42.196;25.326;2024-02-14T05:03:48;5.28;;;4.78;;
34805;SDS011;65084;42.196;25.326;2024-02-14T05:06:16;4.75;;;4.35;;
34805;SDS011;65084;42.196;25.326;2024-02-14T05:08:43;4.32;;;3.92;;
34805;SDS011;65084;42.196;25.326;2024-02-14T05:11:10;6.07;;;4.80;;
34805;SDS011;65084;42.196;25.326;2024-02-14T05:13:38;7.50;;;5.18;;
34805;SDS011;65084;42.196;25.326;2024-02-14T05:16:08;6.28;;;5.50;;
34805;SDS011;65084;42.196;25.326;2024-02-14T05:18:36;4.15;;;3.75;;
34805;SDS011;65084;42.196;25.326;2024-02-14T05:21:05;4.80;;;3.60;;
34805;SDS011;65084;42.196;25.326;2024-02-14T05:23:32;3.67;;;3.38;;
34805;SDS011;65084;42.196;25.326;2024-02-14T05:26:00;3.25;;;2.95;;
34805;SDS011;65084;42.196;25.326;2024-02-14T05:28:28;3.17;;;2.97;;
34805;SDS011;65084;42.196;25.326;2024-02-14T05:30:55;3.40;;;3.10;;
34805;SDS011;65084;42.196;25.326;2024-02-14T05:33:25;3.75;;;3.45;;
34805;SDS011;65084;42.196;25.326;2024-02-14T05:35:52;3.88;;;3.45;;
34805;SDS011;65084;42.196;25.326;2024-02-14T05:38:20;4.28;;;3.38;;
34805;SDS011;65084;42.196;25.326;2024-02-14T05:40:47;4.45;;;4.05;;
34805;SDS011;65084;42.196;25.326;2024-02-14T05:43:14;6.82;;;3.80;;
34805;SDS011;65084;42.196;25.326;2024-02-14T05:45:43;4.38;;;3.92;;
34805;SDS011;65084;42.196;25.326;2024-02-14T05:48:11;6.95;;;3.95;;
34805;SDS011;65084;42.196;25.326;2024-02-14T05:50:41;6.18;;;4.50;;
34805;SDS011;65084;42.196;25.326;2024-02-14T05:53:08;7.70;;;4.68;;
34805;SDS011;65084;42.196;25.326;2024-02-14T05:55:37;5.18;;;4.63;;
34805;SDS011;65084;42.196;25.326;2024-02-14T05:58:04;6.13;;;4.72;;
34805;SDS011;65084;42.196;25.326;2024-02-14T06:00:32;5.65;;;4.55;;
34805;SDS011;65084;42.196;25.326;2024-02-14T06:02:59;5.50;;;4.85;;
34805;SDS011;65084;42.196;25.326;2024-02-14T06:05:27;4.55;;;3.85;;
34805;SDS011;65084;42.196;25.326;2024-02-14T06:07:55;4.43;;;3.83;;
34805;SDS011;65084;42.196;25.326;2024-02-14T06:10:23;9.27;;;5.53;;
34805;SDS011;65084;42.196;25.326;2024-02-14T06:12:51;5.95;;;4.60;;
34805;SDS011;65084;42.196;25.326;2024-02-14T06:15:18;4.90;;;4.18;;
34805;SDS011;65084;42.196;25.326;2024-02-14T06:17:45;5.57;;;4.60;;
34805;SDS011;65084;42.196;25.326;2024-02-14T06:20:13;5.63;;;4.22;;
34805;SDS011;65084;42.196;25.326;2024-02-14T06:22:40;7.20;;;4.35;;
34805;SDS011;65084;42.196;25.326;2024-02-14T06:25:09;5.15;;;4.10;;
34805;SDS011;65084;42.196;25.326;2024-02-14T06:27:36;7.25;;;4.40;;
34805;SDS011;65084;42.196;25.326;2024-02-14T06:30:03;7.25;;;4.15;;
34805;SDS011;65084;42.196;25.326;2024-02-14T06:32:31;7.70;;;4.93;;
34805;SDS011;65084;42.196;25.326;2024-02-14T06:34:58;6.97;;;4.85;;
34805;SDS011;65084;42.196;25.326;2024-02-14T06:37:25;7.43;;;4.72;;
34805;SDS011;65084;42.196;25.326;2024-02-14T06:39:52;7.35;;;4.10;;
34805;SDS011;65084;42.196;25.326;2024-02-14T06:42:21;5.93;;;3.75;;
34805;SDS011;65084;42.196;25.326;2024-02-14T06:44:48;7.68;;;4.20;;
34805;SDS011;65084;42.196;25.326;2024-02-14T06:47:16;5.45;;;3.70;;
34805;SDS011;65084;42.196;25.326;2024-02-14T06:49:43;9.82;;;4.60;;
34805;SDS011;65084;42.196;25.326;2024-02-14T06:52:10;13.27;;;6.60;;
34805;SDS011;65084;42.196;25.326;2024-02-14T06:54:38;10.75;;;5.50;;
34805;SDS011;65084;42.196;25.326;2024-02-14T06:57:05;6.50;;;4.63;;
34805;SDS011;65084;42.196;25.326;2024-02-14T06:59:34;5.90;;;4.30;;
34805;SDS011;65084;42.196;25.326;2024-02-14T07:02:03;6.78;;;3.60;;
34805;SDS011;65084;42.196;25.326;2024-02-14T07:04:30;11.18;;;4.03;;
34805;SDS011;65084;42.196;25.326;2024-02-14T07:06:58;3.83;;;3.38;;
34805;SDS011;65084;42.196;25.326;2024-02-14T07:09:25;7.72;;;3.47;;
34805;SDS011;65084;42.196;25.326;2024-02-14T07:11:53;6.25;;;3.28;;
34805;SDS011;65084;42.196;25.326;2024-02-14T07:14:21;6.13;;;3.92;;
34805;SDS011;65084;42.196;25.326;2024-02-14T07:16:50;4.22;;;3.22;;
34805;SDS011;65084;42.196;25.326;2024-02-14T07:19:17;5.80;;;3.88;;
34805;SDS011;65084;42.196;25.326;2024-02-14T07:21:44;3.90;;;3.60;;
34805;SDS011;65084;42.196;25.326;2024-02-14T07:24:12;4.55;;;4.15;;
34805;SDS011;65084;42.196;25.326;2024-02-14T07:26:39;3.20;;;3.00;;
34805;SDS011;65084;42.196;25.326;2024-02-14T07:29:08;4.30;;;3.70;;
34805;SDS011;65084;42.196;25.326;2024-02-14T07:31:36;5.22;;;3.40;;
34805;SDS011;65084;42.196;25.326;2024-02-14T07:34:04;4.38;;;3.60;;
34805;SDS011;65084;42.196;25.326;2024-02-14T07:36:32;4.03;;;3.50;;
34805;SDS011;65084;42.196;25.326;2024-02-14T07:38:59;4.30;;;3.90;;
34805;SDS011;65084;42.196;25.326;2024-02-14T07:41:26;5.72;;;4.88;;
34805;SDS011;65084;42.196;25.326;2024-02-14T07:43:53;7.80;;;6.25;;
34805;SDS011;65084;42.196;25.326;2024-02-14T07:46:21;6.97;;;6.30;;
34805;SDS011;65084;42.196;25.326;2024-02-14T07:48:51;8.55;;;6.80;;
34805;SDS011;65084;42.196;25.326;2024-02-14T07:51:20;8.07;;;5.78;;
34805;SDS011;65084;42.196;25.326;2024-02-14T07:53:48;5.05;;;4.43;;
34805;SDS011;65084;42.196;25.326;2024-02-14T07:56:15;4.78;;;4.20;;
34805;SDS011;65084;42.196;25.326;2024-02-14T07:58:44;6.20;;;4.47;;
34805;SDS011;65084;42.196;25.326;2024-02-14T08:01:11;5.15;;;4.65;;
34805;SDS011;65084;42.196;25.326;2024-02-14T08:03:40;6.10;;;5.13;;
34805;SDS011;65084;42.196;25.326;2024-02-14T08:06:07;5.85;;;5.00;;
34805;SDS011;65084;42.196;25.326;2024-02-14T08:08:36;11.30;;;6.35;;
34805;SDS011;65084;42.196;25.326;2024-02-14T08:11:04;9.15;;;6.00;;
34805;SDS011;65084;42.196;25.326;2024-02-14T08:13:31;9.63;;;7.55;;
34805;SDS011;65084;42.196;25.326;2024-02-14T08:15:59;9.88;;;7.43;;
34805;SDS011;65084;42.196;25.326;2024-02-14T08:18:27;9.02;;;7.57;;
34805;SDS011;65084;42.196;25.326;2024-02-14T08:20:54;12.35;;;8.25;;
34805;SDS011;65084;42.196;25.326;2024-02-14T08:23:21;12.05;;;8.90;;
34805;SDS011;65084;42.196;25.326;2024-02-14T08:25:50;15.05;;;9.50;;
34805;SDS011;65084;42.196;25.326;2024-02-14T08:28:17;14.98;;;9.30;;
34805;SDS011;65084;42.196;25.326;2024-02-14T08:30:45;14.80;;;7.85;;
34805;SDS011;65084;42.196;25.326;2024-02-14T08:33:13;15.30;;;8.20;;
34805;SDS011;65084;42.196;25.326;2024-02-14T08:35:40;10.70;;;8.40;;
34805;SDS011;65084;42.196;25.326;2024-02-14T08:38:07;11.20;;;8.48;;
34805;SDS011;65084;42.196;25.326;2024-02-14T08:40:34;11.57;;;8.63;;
34805;SDS011;65084;42.196;25.326;2024-02-14T08:43:03;12.10;;;8.57;;
34805;SDS011;65084;42.196;25.326;2024-02-14T08:45:32;10.43;;;8.40;;
34805;SDS011;65084;42.196;25.326;2024-02-14T08:47:59;8.00;;;7.05;;
34805;SDS011;65084;42.196;25.326;2024-02-14T08:50:26;12.13;;;7.63;;
34805;SDS011;65084;42.196;25.326;2024-02-14T08:52:55;11.55;;;8.20;;
34805;SDS011;65084;42.196;25.326;2024-02-14T08:55:23;14.40;;;9.73;;
34805;SDS011;65084;42.196;25.326;2024-02-14T08:57:50;10.38;;;8.18;;
34805;SDS011;65084;42.196;25.326;2024-02-14T09:00:19;12.30;;;8.50;;
34805;SDS011;65084;42.196;25.326;2024-02-14T09:02:47;11.40;;;8.57;;
34805;SDS011;65084;42.196;25.326;2024-02-14T09:05:14;12.32;;;9.20;;
34805;SDS011;65084;42.196;25.326;2024-02-14T09:07:42;18.75;;;10.50;;
34805;SDS011;65084;42.196;25.326;2024-02-14T09:10:10;15.45;;;9.77;;
34805;SDS011;65084;42.196;25.326;2024-02-14T09:12:38;13.55;;;9.95;;
34805;SDS011;65084;42.196;25.326;2024-02-14T09:15:06;10.35;;;7.00;;
34805;SDS011;65084;42.196;25.326;2024-02-14T09:17:35;10.30;;;7.60;;
34805;SDS011;65084;42.196;25.326;2024-02-14T09:20:03;13.90;;;8.93;;
34805;SDS011;65084;42.196;25.326;2024-02-14T09:22:31;13.00;;;8.07;;
34805;SDS011;65084;42.196;25.326;2024-02-14T09:24:59;14.77;;;9.13;;
34805;SDS011;65084;42.196;25.326;2024-02-14T09:27:29;12.88;;;8.23;;
34805;SDS011;65084;42.196;25.326;2024-02-14T09:29:56;14.63;;;8.98;;
34805;SDS011;65084;42.196;25.326;2024-02-14T09:32:23;14.65;;;8.52;;
34805;SDS011;65084;42.196;25.326;2024-02-14T09:34:52;22.60;;;10.27;;
34805;SDS011;65084;42.196;25.326;2024-02-14T09:37:19;22.77;;;10.15;;
34805;SDS011;65084;42.196;25.326;2024-02-14T09:39:47;16.20;;;9.45;;
34805;SDS011;65084;42.196;25.326;2024-02-14T09:42:15;22.08;;;11.40;;
34805;SDS011;65084;42.196;25.326;2024-02-14T09:44:43;26.50;;;14.35;;
34805;SDS011;65084;42.196;25.326;2024-02-14T09:47:10;22.52;;;14.30;;
34805;SDS011;65084;42.196;25.326;2024-02-14T09:49:39;22.10;;;14.07;;
34805;SDS011;65084;42.196;25.326;2024-02-14T09:52:08;20.85;;;11.60;;
34805;SDS011;65084;42.196;25.326;2024-02-14T09:54:36;22.60;;;11.93;;
34805;SDS011;65084;42.196;25.326;2024-02-14T09:57:04;24.27;;;12.55;;
34805;SDS011;65084;42.196;25.326;2024-02-14T09:59:32;17.98;;;11.43;;
34805;SDS011;65084;42.196;25.326;2024-02-14T10:01:59;15.00;;;8.68;;
34805;SDS011;65084;42.196;25.326;2024-02-14T10:04:27;14.68;;;8.15;;
34805;SDS011;65084;42.196;25.326;2024-02-14T10:06:54;13.23;;;7.32;;
34805;SDS011;65084;42.196;25.326;2024-02-14T10:09:25;13.15;;;6.22;;
34805;SDS011;65084;42.196;25.326;2024-02-14T10:11:53;16.42;;;6.75;;
34805;SDS011;65084;42.196;25.326;2024-02-14T10:14:22;8.07;;;5.00;;
34805;SDS011;65084;42.196;25.326;2024-02-14T10:16:50;6.78;;;5.03;;
34805;SDS011;65084;42.196;25.326;2024-02-14T10:19:17;9.48;;;4.45;;
34805;SDS011;65084;42.196;25.326;2024-02-14T10:21:54;6.18;;;3.85;;
34805;SDS011;65084;42.196;25.326;2024-02-14T10:24:25;21.58;;;5.28;;
34805;SDS011;65084;42.196;25.326;2024-02-14T10:26:52;10.45;;;5.88;;
34805;SDS011;65084;42.196;25.326;2024-02-14T10:29:22;8.10;;;4.90;;
34805;SDS011;65084;42.196;25.326;2024-02-14T10:31:50;6.45;;;4.47;;
34805;SDS011;65084;42.196;25.326;2024-02-14T10:34:18;12.35;;;5.07;;
34805;SDS011;65084;42.196;25.326;2024-02-14T10:36:46;9.88;;;5.03;;
34805;SDS011;65084;42.196;25.326;2024-02-14T10:39:16;8.02;;;6.22;;
34805;SDS011;65084;42.196;25.326;2024-02-14T10:41:45;12.52;;;8.32;;
34805;SDS011;65084;42.196;25.326;2024-02-14T10:44:13;13.02;;;9.27;;
34805;SDS011;65084;42.196;25.326;2024-02-14T10:46:40;13.45;;;9.23;;
34805;SDS011;65084;42.196;25.326;2024-02-14T10:49:07;17.58;;;9.43;;
34805;SDS011;65084;42.196;25.326;2024-02-14T10:51:37;22.42;;;10.15;;
34805;SDS011;65084;42.196;25.326;2024-02-14T10:54:08;21.60;;;11.95;;
34805;SDS011;65084;42.196;25.326;2024-02-14T10:56:38;16.73;;;11.23;;
34805;SDS011;65084;42.196;25.326;2024-02-14T10:59:07;24.85;;;13.32;;
34805;SDS011;65084;42.196;25.326;2024-02-14T11:01:36;24.23;;;11.73;;
34805;SDS011;65084;42.196;25.326;2024-02-14T11:04:04;14.77;;;10.88;;
34805;SDS011;65084;42.196;25.326;2024-02-14T11:06:31;16.73;;;12.13;;
34805;SDS011;65084;42.196;25.326;2024-02-14T11:09:00;17.40;;;11.95;;
34805;SDS011;65084;42.196;25.326;2024-02-14T11:11:31;19.75;;;11.88;;
34805;SDS011;65084;42.196;25.326;2024-02-14T11:13:59;15.77;;;9.93;;
34805;SDS011;65084;42.196;25.326;2024-02-14T11:16:28;12.60;;;9.35;;
34805;SDS011;65084;42.196;25.326;2024-02-14T11:19:07;15.93;;;9.48;;
34805;SDS011;65084;42.196;25.326;2024-02-14T11:21:35;13.80;;;9.23;;
34805;SDS011;65084;42.196;25.326;2024-02-14T11:24:04;13.70;;;10.77;;
34805;SDS011;65084;42.196;25.326;2024-02-14T11:29:16;9.02;;;8.02;;
34805;SDS011;65084;42.196;25.326;2024-02-14T11:31:45;11.45;;;8.77;;
34805;SDS011;65084;42.196;25.326;2024-02-14T11:34:13;11.07;;;8.23;;
34805;SDS011;65084;42.196;25.326;2024-02-14T11:36:41;11.32;;;9.27;;
34805;SDS011;65084;42.196;25.326;2024-02-14T11:39:09;9.45;;;8.02;;
34805;SDS011;65084;42.196;25.326;2024-02-14T11:41:37;11.02;;;7.60;;
34805;SDS011;65084;42.196;25.326;2024-02-14T11:44:07;9.13;;;7.82;;
34805;SDS011;65084;42.196;25.326;2024-02-14T11:46:35;8.43;;;7.15;;
34805;SDS011;65084;42.196;25.326;2024-02-14T11:49:04;9.70;;;7.25;;
34805;SDS011;65084;42.196;25.326;2024-02-14T11:51:33;8.18;;;7.25;;
34805;SDS011;65084;42.196;25.326;2024-02-14T11:54:01;7.72;;;6.75;;
34805;SDS011;65084;42.196;25.326;2024-02-14T11:56:31;6.63;;;5.93;;
34805;SDS011;65084;42.196;25.326;2024-02-14T11:58:59;5.40;;;4.80;;
34805;SDS011;65084;42.196;25.326;2024-02-14T12:01:28;6.22;;;5.63;;
34805;SDS011;65084;42.196;25.326;2024-02-14T12:03:56;6.00;;;5.50;;
34805;SDS011;65084;42.196;25.326;2024-02-14T12:06:25;6.55;;;5.95;;
34805;SDS011;65084;42.196;25.326;2024-02-14T12:08:52;7.25;;;6.55;;
34805;SDS011;65084;42.196;25.326;2024-02-14T12:11:20;6.70;;;6.10;;
34805;SDS011;65084;42.196;25.326;2024-02-14T12:13:49;7.32;;;4.88;;
34805;SDS011;65084;42.196;25.326;2024-02-14T12:16:19;4.43;;;4.13;;
34805;SDS011;65084;42.196;25.326;2024-02-14T12:18:47;6.43;;;3.42;;
34805;SDS011;65084;42.196;25.326;2024-02-14T12:21:14;4.93;;;3.95;;
34805;SDS011;65084;42.196;25.326;2024-02-14T12:23:43;4.05;;;3.75;;
34805;SDS011;65084;42.196;25.326;2024-02-14T12:26:10;3.78;;;3.47;;
34805;SDS011;65084;42.196;25.326;2024-02-14T12:28:45;5.60;;;4.20;;
34805;SDS011;65084;42.196;25.326;2024-02-14T12:31:21;5.68;;;4.15;;
34805;SDS011;65084;42.196;25.326;2024-02-14T12:33:48;4.88;;;4.13;;
34805;SDS011;65084;42.196;25.326;2024-02-14T12:36:17;4.05;;;3.75;;
34805;SDS011;65084;42.196;25.326;2024-02-14T12:38:46;4.18;;;3.08;;
34805;SDS011;65084;42.196;25.326;2024-02-14T12:41:13;4.78;;;3.03;;
34805;SDS011;65084;42.196;25.326;2024-02-14T12:43:41;7.53;;;5.03;;
34805;SDS011;65084;42.196;25.326;2024-02-14T12:46:08;5.15;;;4.50;;
34805;SDS011;65084;42.196;25.326;2024-02-14T12:48:35;5.40;;;4.10;;
34805;SDS011;65084;42.196;25.326;2024-02-14T12:51:03;3.55;;;3.25;;
34805;SDS011;65084;42.196;25.326;2024-02-14T12:53:30;13.48;;;6.38;;
34805;SDS011;65084;42.196;25.326;2024-02-14T12:55:59;16.58;;;9.60;;
34805;SDS011;65084;42.196;25.326;2024-02-14T12:58:26;19.25;;;10.35;;
34805;SDS011;65084;42.196;25.326;2024-02-14T13:04:17;13.75;;;8.43;;
34805;SDS011;65084;42.196;25.326;2024-02-14T13:06:45;8.88;;;6.28;;
34805;SDS011;65084;42.196;25.326;2024-02-14T13:09:13;10.38;;;6.43;;
34805;SDS011;65084;42.196;25.326;2024-02-14T13:11:41;4.32;;;3.03;;
34805;SDS011;65084;42.196;25.326;2024-02-14T13:14:09;3.30;;;2.85;;
34805;SDS011;65084;42.196;25.326;2024-02-14T13:16:36;9.70;;;5.47;;
34805;SDS011;65084;42.196;25.326;2024-02-14T13:19:04;10.48;;;4.97;;
34805;SDS011;65084;42.196;25.326;2024-02-14T13:21:31;7.43;;;5.63;;
34805;SDS011;65084;42.196;25.326;2024-02-14T13:23:59;6.10;;;4.43;;
34805;SDS011;65084;42.196;25.326;2024-02-14T13:26:26;3.60;;;3.15;;
34805;SDS011;65084;42.196;25.326;2024-02-14T13:28:55;3.58;;;2.78;;
34805;SDS011;65084;42.196;25.326;2024-02-14T13:31:22;3.17;;;2.78;;
34805;SDS011;65084;42.196;25.326;2024-02-14T13:33:50;4.00;;;2.92;;
34805;SDS011;65084;42.196;25.326;2024-02-14T13:36:17;7.13;;;4.68;;
34805;SDS011;65084;42.196;25.326;2024-02-14T13:38:44;10.43;;;6.40;;
34805;SDS011;65084;42.196;25.326;2024-02-14T13:41:12;6.13;;;4.30;;
34805;SDS011;65084;42.196;25.326;2024-02-14T13:43:40;5.28;;;4.20;;
34805;SDS011;65084;42.196;25.326;2024-02-14T13:46:09;5.88;;;4.82;;
34805;SDS011;65084;42.196;25.326;2024-02-14T13:48:37;6.43;;;5.82;;
34805;SDS011;65084;42.196;25.326;2024-02-14T13:51:04;5.57;;;5.03;;
34805;SDS011;65084;42.196;25.326;2024-02-14T13:53:34;5.82;;;5.32;;
34805;SDS011;65084;42.196;25.326;2024-02-14T13:56:01;9.45;;;5.65;;
34805;SDS011;65084;42.196;25.326;2024-02-14T13:58:29;7.97;;;5.15;;
34805;SDS011;65084;42.196;25.326;2024-02-14T14:00:56;9.40;;;6.50;;
34805;SDS011;65084;42.196;25.326;2024-02-14T14:03:25;10.90;;;7.05;;
34805;SDS011;65084;42.196;25.326;2024-02-14T14:05:54;7.07;;;6.00;;
34805;SDS011;65084;42.196;25.326;2024-02-14T14:08:22;19.83;;;5.45;;
34805;SDS011;65084;42.196;25.326;2024-02-14T14:10:49;12.85;;;6.07;;
34805;SDS011;65084;42.196;25.326;2024-02-14T14:13:17;6.00;;;5.18;;
34805;SDS011;65084;42.196;25.326;2024-02-14T14:15:44;8.57;;;5.78;;
34805;SDS011;65084;42.196;25.326;2024-02-14T14:18:11;7.57;;;6.38;;
34805;SDS011;65084;42.196;25.326;2024-02-14T14:20:40;9.25;;;5.78;;
34805;SDS011;65084;42.196;25.326;2024-02-14T14:23:07;8.88;;;6.10;;
34805;SDS011;65084;42.196;25.326;2024-02-14T14:25:34;8.15;;;6.88;;
34805;SDS011;65084;42.196;25.326;2024-02-14T14:28:02;14.38;;;7.20;;
34805;SDS011;65084;42.196;25.326;2024-02-14T14:30:30;12.70;;;6.50;;
34805;SDS011;65084;42.196;25.326;2024-02-14T14:32:57;8.40;;;6.40;;
34805;SDS011;65084;42.196;25.326;2024-02-14T14:35:24;7.05;;;6.07;;
34805;SDS011;65084;42.196;25.326;2024-02-14T14:37:53;13.23;;;6.50;;
34805;SDS011;65084;42.196;25.326;2024-02-14T14:40:20;7.20;;;6.13;;
34805;SDS011;65084;42.196;25.326;2024-02-14T14:42:50;6.85;;;6.18;;